sensor_id;sensor_type;location;lat;lon;timestamp;pressure;altitude;pressure_sealevel;temperature;humidity
1616;BME280;801;47.982;7.810;2023-04-02T00:01:16;97955.16;;;9.22;100.00
1616;BME280;801;47.982;7.810;2023-04-02T00:04:04;97956.22;;;9.16;100.00
1616;BME280;801;47.982;7.810;2023-04-02T00:06:34;97964.25;;;9.26;100.00
1616;BME280;801;47.982;7.810;2023-04-02T00:09:19;97957.84;;;9.27;100.00
1616;BME280;801;47.982;7.810;2023-04-02T00:11:49;97968.03;;;9.30;100.00
1616;BME280;801;47.982;7.810;2023-04-02T00:14:24;97964.25;;;9.21;100.00
1616;BME280;801;47.982;7.810;2023-04-02T00:16:51;97967.50;;;9.44;100.00
1616;BME280;801;47.982;7.810;2023-04-02T00:19:23;97960.25;;;9.39;100.00
1616;BME280;801;47.982;7.810;2023-04-02T00:21:52;97965.88;;;9.32;100.00
1616;BME280;801;47.982;7.810;2023-04-02T00:24:20;97974.97;;;9.21;100.00
1616;BME280;801;47.982;7.810;2023-04-02T00:26:48;97964.78;;;9.28;100.00
1616;BME280;801;47.982;7.810;2023-04-02T00:29:16;97969.63;;;9.42;100.00
1616;BME280;801;47.982;7.810;2023-04-02T00:31:45;97975.78;;;9.37;100.00
1616;BME280;801;47.982;7.810;2023-04-02T00:34:17;97973.41;;;9.35;100.00
1616;BME280;801;47.982;7.810;2023-04-02T00:36:45;97980.88;;;9.28;100.00
1616;BME280;801;47.982;7.810;2023-04-02T00:39:16;97970.97;;;9.24;100.00
1616;BME280;801;47.982;7.810;2023-04-02T00:41:43;97979.25;;;9.17;100.00
1616;BME280;801;47.982;7.810;2023-04-02T00:44:12;97974.72;;;9.28;100.00
1616;BME280;801;47.982;7.810;2023-04-02T00:46:41;97984.38;;;9.24;100.00
1616;BME280;801;47.982;7.810;2023-04-02T00:49:20;97963.47;;;9.16;100.00
1616;BME280;801;47.982;7.810;2023-04-02T00:51:50;97965.88;;;9.32;100.00
1616;BME280;801;47.982;7.810;2023-04-02T00:54:20;97972.84;;;9.23;100.00
1616;BME280;801;47.982;7.810;2023-04-02T00:56:51;97970.16;;;9.18;100.00
1616;BME280;801;47.982;7.810;2023-04-02T00:59:25;97967.75;;;9.32;100.00
1616;BME280;801;47.982;7.810;2023-04-02T01:01:56;97969.63;;;9.31;100.00
1616;BME280;801;47.982;7.810;2023-04-02T01:04:32;97978.72;;;9.15;100.00
1616;BME280;801;47.982;7.810;2023-04-02T01:07:03;97972.84;;;9.18;100.00
1616;BME280;801;47.982;7.810;2023-04-02T01:09:49;97976.59;;;9.27;100.00
1616;BME280;801;47.982;7.810;2023-04-02T01:12:38;97987.31;;;9.22;100.00
1616;BME280;801;47.982;7.810;2023-04-02T01:15:14;97990.81;;;9.28;100.00
1616;BME280;801;47.982;7.810;2023-04-02T01:17:53;97991.84;;;9.06;100.00
1616;BME280;801;47.982;7.810;2023-04-02T01:21:02;97992.63;;;9.02;100.00
1616;BME280;801;47.982;7.810;2023-04-02T01:23:36;97992.38;;;9.08;100.00
1616;BME280;801;47.982;7.810;2023-04-02T01:26:10;97998.56;;;9.19;100.00
1616;BME280;801;47.982;7.810;2023-04-02T01:28:55;97996.44;;;9.16;100.00
1616;BME280;801;47.982;7.810;2023-04-02T01:31:24;97988.91;;;9.13;100.00
1616;BME280;801;47.982;7.810;2023-04-02T01:33:52;97979.25;;;9.17;100.00
1616;BME280;801;47.982;7.810;2023-04-02T01:36:24;97988.63;;;9.04;100.00
1616;BME280;801;47.982;7.810;2023-04-02T01:38:59;97993.72;;;9.06;100.00
1616;BME280;801;47.982;7.810;2023-04-02T01:41:33;97989.97;;;9.12;100.00
1616;BME280;801;47.982;7.810;2023-04-02T01:44:05;97985.41;;;9.02;100.00
1616;BME280;801;47.982;7.810;2023-04-02T01:46:35;97987.00;;;8.98;100.00
1616;BME280;801;47.982;7.810;2023-04-02T01:49:11;97993.47;;;9.02;100.00
1616;BME280;801;47.982;7.810;2023-04-02T01:51:41;97999.56;;;8.92;100.00
1616;BME280;801;47.982;7.810;2023-04-02T01:54:09;97992.91;;;9.00;100.00
1616;BME280;801;47.982;7.810;2023-04-02T01:56:36;97989.41;;;8.89;100.00
1616;BME280;801;47.982;7.810;2023-04-02T01:59:06;98001.19;;;8.93;100.00
1616;BME280;801;47.982;7.810;2023-04-02T02:01:38;97984.63;;;9.07;100.00
1616;BME280;801;47.982;7.810;2023-04-02T02:04:11;97997.22;;;9.11;100.00
1616;BME280;801;47.982;7.810;2023-04-02T02:06:38;97991.81;;;9.01;100.00
1616;BME280;801;47.982;7.810;2023-04-02T02:09:05;98001.75;;;9.01;100.00
1616;BME280;801;47.982;7.810;2023-04-02T02:11:33;98006.06;;;9.07;100.00
1616;BME280;801;47.982;7.810;2023-04-02T02:14:08;97994.75;;;9.00;100.00
1616;BME280;801;47.982;7.810;2023-04-02T02:16:38;98000.66;;;8.86;100.00
1616;BME280;801;47.982;7.810;2023-04-02T02:19:17;98015.28;;;8.68;100.00
1616;BME280;801;47.982;7.810;2023-04-02T02:21:48;98014.56;;;8.83;100.00
1616;BME280;801;47.982;7.810;2023-04-02T02:24:19;98005.66;;;8.72;100.00
1616;BME280;801;47.982;7.810;2023-04-02T02:26:48;98030.31;;;8.64;100.00
1616;BME280;801;47.982;7.810;2023-04-02T02:29:19;98023.88;;;8.65;100.00
1616;BME280;801;47.982;7.810;2023-04-02T02:31:51;98013.75;;;8.78;100.00
1616;BME280;801;47.982;7.810;2023-04-02T02:34:22;98016.06;;;8.54;100.00
1616;BME280;801;47.982;7.810;2023-04-02T02:36:51;98011.28;;;8.66;100.00
1616;BME280;801;47.982;7.810;2023-04-02T02:39:23;98019.34;;;8.76;100.00
1616;BME280;801;47.982;7.810;2023-04-02T02:41:54;98015.56;;;8.67;100.00
1616;BME280;801;47.982;7.810;2023-04-02T02:44:26;98009.66;;;8.65;100.00
1616;BME280;801;47.982;7.810;2023-04-02T02:46:59;98016.94;;;8.75;100.00
1616;BME280;801;47.982;7.810;2023-04-02T02:49:28;98019.28;;;8.61;100.00
1616;BME280;801;47.982;7.810;2023-04-02T02:51:59;98021.72;;;8.62;100.00
1616;BME280;801;47.982;7.810;2023-04-02T02:54:26;98016.06;;;8.59;100.00
1616;BME280;801;47.982;7.810;2023-04-02T02:56:57;98028.97;;;8.67;100.00
1616;BME280;801;47.982;7.810;2023-04-02T02:59:28;98024.09;;;8.54;100.00
1616;BME280;801;47.982;7.810;2023-04-02T03:01:56;98023.53;;;8.51;100.00
1616;BME280;801;47.982;7.810;2023-04-02T03:04:24;98033.72;;;8.55;100.00
1616;BME280;801;47.982;7.810;2023-04-02T03:06:51;98036.38;;;8.55;100.00
1616;BME280;801;47.982;7.810;2023-04-02T03:09:25;98034.19;;;8.41;100.00
1616;BME280;801;47.982;7.810;2023-04-02T03:12:00;98038.28;;;8.59;100.00
1616;BME280;801;47.982;7.810;2023-04-02T03:14:33;98038.13;;;8.34;100.00
1616;BME280;801;47.982;7.810;2023-04-02T03:17:05;98037.97;;;8.45;100.00
1616;BME280;801;47.982;7.810;2023-04-02T03:19:38;98048.00;;;8.28;100.00
1616;BME280;801;47.982;7.810;2023-04-02T03:22:10;98049.13;;;8.37;100.00
1616;BME280;801;47.982;7.810;2023-04-02T03:24:46;98050.66;;;8.23;100.00
1616;BME280;801;47.982;7.810;2023-04-02T03:27:17;98046.31;;;8.17;100.00
1616;BME280;801;47.982;7.810;2023-04-02T03:29:57;98050.41;;;8.24;100.00
1616;BME280;801;47.982;7.810;2023-04-02T03:32:29;98045.84;;;8.25;100.00
1616;BME280;801;47.982;7.810;2023-04-02T03:35:01;98051.19;;;8.25;100.00
1616;BME280;801;47.982;7.810;2023-04-02T03:37:31;98051.09;;;8.09;100.00
1616;BME280;801;47.982;7.810;2023-04-02T03:40:03;98060.25;;;8.19;100.00
1616;BME280;801;47.982;7.810;2023-04-02T03:42:38;98061.66;;;8.26;100.00
1616;BME280;801;47.982;7.810;2023-04-02T03:45:12;98061.91;;;8.25;100.00
1616;BME280;801;47.982;7.810;2023-04-02T03:47:44;98062.47;;;8.27;100.00
1616;BME280;801;47.982;7.810;2023-04-02T03:50:17;98055.69;;;8.19;100.00
1616;BME280;801;47.982;7.810;2023-04-02T03:52:46;98060.03;;;8.25;100.00
1616;BME280;801;47.982;7.810;2023-04-02T03:55:15;98067.81;;;8.27;100.00
1616;BME280;801;47.982;7.810;2023-04-02T03:57:46;98075.72;;;8.11;100.00
1616;BME280;801;47.982;7.810;2023-04-02T04:00:25;98080.22;;;8.06;100.00
1616;BME280;801;47.982;7.810;2023-04-02T04:02:59;98078.44;;;8.17;100.00
1616;BME280;801;47.982;7.810;2023-04-02T04:05:31;98075.38;;;8.35;100.00
1616;BME280;801;47.982;7.810;2023-04-02T04:08:01;98081.97;;;8.22;100.00
1616;BME280;801;47.982;7.810;2023-04-02T04:10:28;98075.72;;;8.11;100.00
1616;BME280;801;47.982;7.810;2023-04-02T04:13:01;98079.47;;;8.10;100.00
1616;BME280;801;47.982;7.810;2023-04-02T04:15:32;98077.06;;;8.09;100.00
1616;BME280;801;47.982;7.810;2023-04-02T04:18:06;98093.38;;;8.13;100.00
1616;BME280;801;47.982;7.810;2023-04-02T04:20:39;98100.91;;;8.10;100.00
1616;BME280;801;47.982;7.810;2023-04-02T04:23:17;98098.44;;;8.04;100.00
1616;BME280;801;47.982;7.810;2023-04-02T04:25:56;98091.25;;;8.15;100.00
1616;BME280;801;47.982;7.810;2023-04-02T04:28:26;98105.13;;;8.06;100.00
1616;BME280;801;47.982;7.810;2023-04-02T04:30:59;98113.97;;;8.07;100.00
1616;BME280;801;47.982;7.810;2023-04-02T04:33:30;98110.00;;;8.15;100.00
1616;BME280;801;47.982;7.810;2023-04-02T04:36:05;98123.00;;;8.01;100.00
1616;BME280;801;47.982;7.810;2023-04-02T04:38:46;98125.84;;;8.21;100.00
1616;BME280;801;47.982;7.810;2023-04-02T04:41:15;98113.72;;;8.08;100.00
1616;BME280;801;47.982;7.810;2023-04-02T04:43:45;98119.53;;;8.00;100.00
1616;BME280;801;47.982;7.810;2023-04-02T04:46:17;98129.28;;;8.17;100.00
1616;BME280;801;47.982;7.810;2023-04-02T04:48:49;98126.78;;;8.05;100.00
1616;BME280;801;47.982;7.810;2023-04-02T04:51:20;98127.53;;;7.95;100.00
1616;BME280;801;47.982;7.810;2023-04-02T04:53:52;98129.22;;;8.06;100.00
1616;BME280;801;47.982;7.810;2023-04-02T04:56:22;98136.09;;;7.97;100.00
1616;BME280;801;47.982;7.810;2023-04-02T04:58:53;98128.22;;;7.85;100.00
1616;BME280;801;47.982;7.810;2023-04-02T05:01:26;98136.03;;;7.92;100.00
1616;BME280;801;47.982;7.810;2023-04-02T05:03:58;98140.94;;;8.00;100.00
1616;BME280;801;47.982;7.810;2023-04-02T05:06:34;98137.66;;;7.93;100.00
1616;BME280;801;47.982;7.810;2023-04-02T05:09:07;98134.69;;;7.89;100.00
1616;BME280;801;47.982;7.810;2023-04-02T05:11:40;98146.31;;;8.05;100.00
1616;BME280;801;47.982;7.810;2023-04-02T05:14:17;98141.38;;;7.92;100.00
1616;BME280;801;47.982;7.810;2023-04-02T05:16:52;98155.25;;;7.84;100.00
1616;BME280;801;47.982;7.810;2023-04-02T05:19:27;98148.25;;;7.83;100.00
1616;BME280;801;47.982;7.810;2023-04-02T05:21:58;98155.03;;;7.90;100.00
1616;BME280;801;47.982;7.810;2023-04-02T05:24:43;98153.72;;;7.93;100.00
1616;BME280;801;47.982;7.810;2023-04-02T05:27:19;98152.09;;;7.92;100.00
1616;BME280;801;47.982;7.810;2023-04-02T05:29:52;98155.53;;;7.87;100.00
1616;BME280;801;47.982;7.810;2023-04-02T05:32:26;98160.06;;;7.87;100.00
1616;BME280;801;47.982;7.810;2023-04-02T05:34:55;98153.22;;;7.96;100.00
1616;BME280;801;47.982;7.810;2023-04-02T05:37:24;98150.50;;;7.91;100.00
1616;BME280;801;47.982;7.810;2023-04-02T05:39:53;98158.28;;;7.93;100.00
1616;BME280;801;47.982;7.810;2023-04-02T05:42:22;98156.25;;;7.78;100.00
1616;BME280;801;47.982;7.810;2023-04-02T05:45:00;98161.00;;;7.98;100.00
1616;BME280;801;47.982;7.810;2023-04-02T05:47:31;98149.16;;;7.94;100.00
1616;BME280;801;47.982;7.810;2023-04-02T05:50:13;98159.06;;;7.93;100.00
1616;BME280;801;47.982;7.810;2023-04-02T05:52:45;98153.13;;;7.86;100.00
1616;BME280;801;47.982;7.810;2023-04-02T05:55:31;98159.19;;;7.81;100.00
1616;BME280;801;47.982;7.810;2023-04-02T05:58:03;98175.63;;;7.90;100.00
1616;BME280;801;47.982;7.810;2023-04-02T06:00:46;98175.63;;;7.90;100.00
1616;BME280;801;47.982;7.810;2023-04-02T06:03:23;98171.13;;;7.96;100.00
1616;BME280;801;47.982;7.810;2023-04-02T06:05:52;98173.09;;;8.05;100.00
1616;BME280;801;47.982;7.810;2023-04-02T06:08:22;98176.28;;;8.02;100.00
1616;BME280;801;47.982;7.810;2023-04-02T06:10:52;98171.38;;;7.94;100.00
1616;BME280;801;47.982;7.810;2023-04-02T06:13:21;98177.03;;;7.98;100.00
1616;BME280;801;47.982;7.810;2023-04-02T06:15:47;98184.50;;;8.23;100.00
1616;BME280;801;47.982;7.810;2023-04-02T06:18:16;98188.34;;;8.05;100.00
1616;BME280;801;47.982;7.810;2023-04-02T06:20:45;98182.78;;;8.11;100.00
1616;BME280;801;47.982;7.810;2023-04-02T06:23:15;98188.09;;;8.06;100.00
1616;BME280;801;47.982;7.810;2023-04-02T06:25:46;98188.84;;;8.02;100.00
1616;BME280;801;47.982;7.810;2023-04-02T06:28:16;98186.00;;;8.14;100.00
1616;BME280;801;47.982;7.810;2023-04-02T06:30:44;98182.53;;;8.13;100.00
1616;BME280;801;47.982;7.810;2023-04-02T06:33:11;98194.00;;;8.08;100.00
1616;BME280;801;47.982;7.810;2023-04-02T06:35:42;98194.28;;;8.12;100.00
1616;BME280;801;47.982;7.810;2023-04-02T06:38:16;98201.56;;;8.17;100.00
1616;BME280;801;47.982;7.810;2023-04-02T06:40:48;98205.91;;;8.23;100.00
1616;BME280;801;47.982;7.810;2023-04-02T06:43:22;98209.50;;;8.39;100.00
1616;BME280;801;47.982;7.810;2023-04-02T06:45:54;98215.00;;;8.22;100.00
1616;BME280;801;47.982;7.810;2023-04-02T06:48:22;98216.50;;;8.13;100.00
1616;BME280;801;47.982;7.810;2023-04-02T06:50:54;98224.22;;;8.36;100.00
1616;BME280;801;47.982;7.810;2023-04-02T06:53:25;98229.94;;;8.18;100.00
1616;BME280;801;47.982;7.810;2023-04-02T06:55:57;98229.16;;;8.44;100.00
1616;BME280;801;47.982;7.810;2023-04-02T06:58:26;98238.56;;;8.25;100.00
1616;BME280;801;47.982;7.810;2023-04-02T07:00:52;98234.50;;;8.44;100.00
1616;BME280;801;47.982;7.810;2023-04-02T07:03:22;98229.66;;;8.41;100.00
1616;BME280;801;47.982;7.810;2023-04-02T07:05:49;98242.25;;;8.46;100.00
1616;BME280;801;47.982;7.810;2023-04-02T07:08:15;98239.88;;;8.44;100.00
1616;BME280;801;47.982;7.810;2023-04-02T07:10:44;98245.25;;;8.49;100.00
1616;BME280;801;47.982;7.810;2023-04-02T07:13:13;98242.88;;;8.53;100.00
1616;BME280;801;47.982;7.810;2023-04-02T07:15:40;98246.53;;;8.79;100.00
1616;BME280;801;47.982;7.810;2023-04-02T07:18:26;98257.41;;;8.62;100.00
1616;BME280;801;47.982;7.810;2023-04-02T07:20:53;98257.25;;;8.79;100.00
1616;BME280;801;47.982;7.810;2023-04-02T07:23:19;98263.47;;;8.80;100.00
1616;BME280;801;47.982;7.810;2023-04-02T07:25:48;98266.72;;;8.87;100.00
1616;BME280;801;47.982;7.810;2023-04-02T07:28:15;98269.19;;;8.93;100.00
1616;BME280;801;47.982;7.810;2023-04-02T07:30:41;98271.31;;;8.91;100.00
1616;BME280;801;47.982;7.810;2023-04-02T07:33:11;98267.53;;;8.92;100.00
1616;BME280;801;47.982;7.810;2023-04-02T07:35:39;98273.94;;;8.86;100.00
1616;BME280;801;47.982;7.810;2023-04-02T07:38:05;98282.59;;;8.99;100.00
1616;BME280;801;47.982;7.810;2023-04-02T07:40:32;98287.38;;;8.91;100.00
1616;BME280;801;47.982;7.810;2023-04-02T07:42:59;98282.41;;;9.10;100.00
1616;BME280;801;47.982;7.810;2023-04-02T07:45:26;98288.19;;;9.34;100.00
1616;BME280;801;47.982;7.810;2023-04-02T07:47:53;98294.50;;;9.13;100.00
1616;BME280;801;47.982;7.810;2023-04-02T07:50:19;98297.34;;;9.39;100.00
1616;BME280;801;47.982;7.810;2023-04-02T07:52:46;98290.09;;;8.97;100.00
1616;BME280;801;47.982;7.810;2023-04-02T07:55:14;98298.88;;;9.24;100.00
1616;BME280;801;47.982;7.810;2023-04-02T07:57:47;98300.50;;;9.30;100.00
1616;BME280;801;47.982;7.810;2023-04-02T08:00:16;98304.06;;;9.04;100.00
1616;BME280;801;47.982;7.810;2023-04-02T08:02:43;98306.25;;;9.07;100.00
1616;BME280;801;47.982;7.810;2023-04-02T08:05:10;98312.31;;;9.34;100.00
1616;BME280;801;47.982;7.810;2023-04-02T08:07:37;98307.19;;;9.28;100.00
1616;BME280;801;47.982;7.810;2023-04-02T08:10:05;98314.47;;;9.32;100.00
1616;BME280;801;47.982;7.810;2023-04-02T08:12:32;98323.94;;;9.45;100.00
1616;BME280;801;47.982;7.810;2023-04-02T08:14:58;98326.72;;;9.61;100.00
1616;BME280;801;47.982;7.810;2023-04-02T08:17:27;98328.69;;;9.81;100.00
1616;BME280;801;47.982;7.810;2023-04-02T08:19:55;98328.06;;;9.68;100.00
1616;BME280;801;47.982;7.810;2023-04-02T08:22:25;98334.53;;;9.72;100.00
1616;BME280;801;47.982;7.810;2023-04-02T08:24:51;98327.97;;;10.06;100.00
1616;BME280;801;47.982;7.810;2023-04-02T08:27:18;98343.13;;;9.74;100.00
1616;BME280;801;47.982;7.810;2023-04-02T08:29:44;98336.28;;;10.04;100.00
1616;BME280;801;47.982;7.810;2023-04-02T08:32:13;98352.88;;;9.91;100.00
1616;BME280;801;47.982;7.810;2023-04-02T08:34:42;98344.97;;;9.69;100.00
1616;BME280;801;47.982;7.810;2023-04-02T08:37:10;98346.91;;;9.73;100.00
1616;BME280;801;47.982;7.810;2023-04-02T08:39:37;98352.78;;;9.70;100.00
1616;BME280;801;47.982;7.810;2023-04-02T08:42:07;98346.47;;;9.97;100.00
1616;BME280;801;47.982;7.810;2023-04-02T08:44:50;98361.84;;;10.17;100.00
1616;BME280;801;47.982;7.810;2023-04-02T08:47:21;98361.59;;;10.24;100.00
1616;BME280;801;47.982;7.810;2023-04-02T08:49:54;98364.28;;;10.18;100.00
1616;BME280;801;47.982;7.810;2023-04-02T08:52:25;98375.28;;;10.22;100.00
1616;BME280;801;47.982;7.810;2023-04-02T08:54:52;98364.28;;;10.24;100.00
1616;BME280;801;47.982;7.810;2023-04-02T08:57:27;98381.38;;;10.02;100.00
1616;BME280;801;47.982;7.810;2023-04-02T09:00:00;98374.56;;;10.42;100.00
1616;BME280;801;47.982;7.810;2023-04-02T09:02:37;98384.56;;;10.57;100.00
1616;BME280;801;47.982;7.810;2023-04-02T09:05:15;98377.59;;;10.61;100.00
1616;BME280;801;47.982;7.810;2023-04-02T09:07:43;98383.78;;;10.67;100.00
1616;BME280;801;47.982;7.810;2023-04-02T09:10:12;98388.03;;;10.47;100.00
1616;BME280;801;47.982;7.810;2023-04-02T09:12:42;98386.91;;;10.33;100.00
1616;BME280;801;47.982;7.810;2023-04-02T09:15:16;98389.91;;;10.47;100.00
1616;BME280;801;47.982;7.810;2023-04-02T09:17:52;98389.00;;;10.26;100.00
1616;BME280;801;47.982;7.810;2023-04-02T09:20:25;98406.56;;;10.44;100.00
1616;BME280;801;47.982;7.810;2023-04-02T09:22:53;98399.84;;;10.41;100.00
1616;BME280;801;47.982;7.810;2023-04-02T09:25:22;98406.72;;;10.22;100.00
1616;BME280;801;47.982;7.810;2023-04-02T09:27:52;98400.94;;;10.55;100.00
1616;BME280;801;47.982;7.810;2023-04-02T09:30:28;98402.53;;;10.46;100.00
1616;BME280;801;47.982;7.810;2023-04-02T09:32:59;98405.16;;;10.31;100.00
1616;BME280;801;47.982;7.810;2023-04-02T09:35:29;98417.00;;;10.40;100.00
1616;BME280;801;47.982;7.810;2023-04-02T09:38:20;98413.34;;;10.67;100.00
1616;BME280;801;47.982;7.810;2023-04-02T09:40:49;98412.84;;;10.90;100.00
1616;BME280;801;47.982;7.810;2023-04-02T09:43:18;98417.16;;;10.86;100.00
1616;BME280;801;47.982;7.810;2023-04-02T09:45:55;98417.97;;;10.92;100.00
1616;BME280;801;47.982;7.810;2023-04-02T09:48:24;98421.69;;;10.70;100.00
1616;BME280;801;47.982;7.810;2023-04-02T09:51:13;98426.00;;;10.82;100.00
1616;BME280;801;47.982;7.810;2023-04-02T09:53:42;98424.16;;;11.13;100.00
1616;BME280;801;47.982;7.810;2023-04-02T09:56:15;98427.91;;;10.91;100.00
1616;BME280;801;47.982;7.810;2023-04-02T09:58:43;98420.13;;;11.00;100.00
1616;BME280;801;47.982;7.810;2023-04-02T10:01:28;98416.91;;;11.03;100.00
1616;BME280;801;47.982;7.810;2023-04-02T10:03:55;98428.16;;;10.85;100.00
1616;BME280;801;47.982;7.810;2023-04-02T10:06:24;98423.91;;;11.14;100.00
1616;BME280;801;47.982;7.810;2023-04-02T10:08:52;98427.69;;;11.54;100.00
1616;BME280;801;47.982;7.810;2023-04-02T10:11:24;98429.81;;;11.62;100.00
1616;BME280;801;47.982;7.810;2023-04-02T10:13:55;98423.63;;;11.93;100.00
1616;BME280;801;47.982;7.810;2023-04-02T10:16:25;98425.72;;;12.01;100.00
1616;BME280;801;47.982;7.810;2023-04-02T10:18:57;98442.84;;;12.46;100.00
1616;BME280;801;47.982;7.810;2023-04-02T10:21:29;98434.09;;;11.94;100.00
1616;BME280;801;47.982;7.810;2023-04-02T10:23:57;98441.03;;;12.21;100.00
1616;BME280;801;47.982;7.810;2023-04-02T10:26:37;98441.50;;;12.38;100.00
1616;BME280;801;47.982;7.810;2023-04-02T10:29:15;98439.09;;;12.32;100.00
1616;BME280;801;47.982;7.810;2023-04-02T10:31:50;98440.03;;;12.66;100.00
1616;BME280;801;47.982;7.810;2023-04-02T10:34:22;98444.97;;;13.04;100.00
1616;BME280;801;47.982;7.810;2023-04-02T10:36:53;98445.38;;;12.82;100.00
1616;BME280;801;47.982;7.810;2023-04-02T10:39:25;98447.25;;;13.21;100.00
1616;BME280;801;47.982;7.810;2023-04-02T10:42:01;98448.59;;;12.84;100.00
1616;BME280;801;47.982;7.810;2023-04-02T10:44:38;98447.66;;;12.99;100.00
1616;BME280;801;47.982;7.810;2023-04-02T10:47:16;98453.09;;;12.94;100.00
1616;BME280;801;47.982;7.810;2023-04-02T10:49:49;98446.00;;;13.47;100.00
1616;BME280;801;47.982;7.810;2023-04-02T10:52:25;98449.59;;;13.38;100.00
1616;BME280;801;47.982;7.810;2023-04-02T10:54:57;98456.44;;;12.75;100.00
1616;BME280;801;47.982;7.810;2023-04-02T10:57:33;98453.16;;;13.33;100.00
1616;BME280;801;47.982;7.810;2023-04-02T11:00:12;98457.69;;;13.38;100.00
1616;BME280;801;47.982;7.810;2023-04-02T11:02:45;98455.50;;;13.00;100.00
1616;BME280;801;47.982;7.810;2023-04-02T11:05:19;98458.78;;;12.92;100.00
1616;BME280;801;47.982;7.810;2023-04-02T11:08:02;98458.13;;;13.55;100.00
1616;BME280;801;47.982;7.810;2023-04-02T11:10:31;98462.59;;;13.94;100.00
1616;BME280;801;47.982;7.810;2023-04-02T11:13:04;98461.56;;;13.61;100.00
1616;BME280;801;47.982;7.810;2023-04-02T11:15:33;98468.22;;;13.68;100.00
1616;BME280;801;47.982;7.810;2023-04-02T11:18:00;98464.31;;;13.50;100.00
1616;BME280;801;47.982;7.810;2023-04-02T11:20:55;98478.50;;;12.82;100.00
1616;BME280;801;47.982;7.810;2023-04-02T11:23:26;98473.31;;;12.36;100.00
1616;BME280;801;47.982;7.810;2023-04-02T11:29:01;98480.78;;;12.60;100.00
1616;BME280;801;47.982;7.810;2023-04-02T11:31:30;98485.88;;;12.66;100.00
1616;BME280;801;47.982;7.810;2023-04-02T11:33:57;98474.22;;;12.76;100.00
1616;BME280;801;47.982;7.810;2023-04-02T11:36:56;98484.63;;;12.98;100.00
1616;BME280;801;47.982;7.810;2023-04-02T11:39:46;98485.06;;;13.16;100.00
1616;BME280;801;47.982;7.810;2023-04-02T11:42:23;98484.63;;;13.77;100.00
1616;BME280;801;47.982;7.810;2023-04-02T11:44:50;98480.63;;;14.28;100.00
1616;BME280;801;47.982;7.810;2023-04-02T11:47:18;98490.34;;;14.58;100.00
1616;BME280;801;47.982;7.810;2023-04-02T11:50:00;98491.47;;;14.76;96.80
1616;BME280;801;47.982;7.810;2023-04-02T11:52:31;98494.63;;;15.02;90.78
1616;BME280;801;47.982;7.810;2023-04-02T11:55:26;98491.34;;;14.62;90.00
1616;BME280;801;47.982;7.810;2023-04-02T11:58:24;98493.75;;;13.86;97.83
1616;BME280;801;47.982;7.810;2023-04-02T12:01:14;98494.34;;;13.44;94.74
1616;BME280;801;47.982;7.810;2023-04-02T12:04:00;98500.72;;;13.58;95.30
1616;BME280;801;47.982;7.810;2023-04-02T12:06:42;98498.91;;;13.83;94.61
1616;BME280;801;47.982;7.810;2023-04-02T12:09:18;98508.41;;;14.33;90.78
1616;BME280;801;47.982;7.810;2023-04-02T12:11:49;98498.38;;;14.63;90.96
1616;BME280;801;47.982;7.810;2023-04-02T12:14:31;98502.16;;;15.24;90.95
1616;BME280;801;47.982;7.810;2023-04-02T12:17:15;98511.34;;;16.13;87.28
1616;BME280;801;47.982;7.810;2023-04-02T12:19:46;98502.81;;;15.73;85.88
1616;BME280;801;47.982;7.810;2023-04-02T12:22:17;98509.13;;;16.01;85.39
1616;BME280;801;47.982;7.810;2023-04-02T12:24:46;98504.78;;;14.91;88.59
1616;BME280;801;47.982;7.810;2023-04-02T12:27:18;98502.75;;;14.59;90.21
1616;BME280;801;47.982;7.810;2023-04-02T12:29:47;98513.31;;;14.31;90.52
1616;BME280;801;47.982;7.810;2023-04-02T12:32:19;98499.44;;;14.62;88.42
1616;BME280;801;47.982;7.810;2023-04-02T12:34:46;98515.50;;;15.21;88.37
1616;BME280;801;47.982;7.810;2023-04-02T12:37:19;98520.78;;;14.40;87.37
1616;BME280;801;47.982;7.810;2023-04-02T12:39:51;98519.47;;;14.08;89.39
1616;BME280;801;47.982;7.810;2023-04-02T12:42:26;98516.50;;;15.25;90.27
1616;BME280;801;47.982;7.810;2023-04-02T12:44:53;98525.06;;;15.70;86.67
1616;BME280;801;47.982;7.810;2023-04-02T12:47:20;98518.97;;;14.83;88.39
1616;BME280;801;47.982;7.810;2023-04-02T12:49:47;98525.38;;;14.39;91.68
1616;BME280;801;47.982;7.810;2023-04-02T12:52:15;98523.16;;;14.17;93.15
1616;BME280;801;47.982;7.810;2023-04-02T12:54:44;98528.69;;;14.07;92.52
1616;BME280;801;47.982;7.810;2023-04-02T12:57:40;98529.81;;;14.01;93.79
1616;BME280;801;47.982;7.810;2023-04-02T13:00:31;98535.47;;;13.70;93.55
1616;BME280;801;47.982;7.810;2023-04-02T13:03:00;98531.66;;;14.05;93.39
1616;BME280;801;47.982;7.810;2023-04-02T13:05:37;98536.66;;;14.22;90.02
1616;BME280;801;47.982;7.810;2023-04-02T13:08:15;98537.97;;;14.78;86.39
1616;BME280;801;47.982;7.810;2023-04-02T13:10:43;98532.16;;;14.66;88.29
1616;BME280;801;47.982;7.810;2023-04-02T13:13:15;98545.31;;;15.15;85.05
1616;BME280;801;47.982;7.810;2023-04-02T13:15:43;98543.06;;;16.12;79.72
1616;BME280;801;47.982;7.810;2023-04-02T13:18:18;98540.41;;;15.18;84.19
1616;BME280;801;47.982;7.810;2023-04-02T13:20:54;98541.38;;;15.46;83.69
1616;BME280;801;47.982;7.810;2023-04-02T13:23:24;98547.56;;;14.89;84.90
1616;BME280;801;47.982;7.810;2023-04-02T13:25:57;98543.84;;;15.04;81.84
1616;BME280;801;47.982;7.810;2023-04-02T13:28:26;98544.00;;;15.13;83.10
1616;BME280;801;47.982;7.810;2023-04-02T13:30:53;98543.72;;;15.52;82.14
1616;BME280;801;47.982;7.810;2023-04-02T13:33:19;98541.59;;;15.49;81.77
1616;BME280;801;47.982;7.810;2023-04-02T13:35:46;98542.06;;;15.19;85.44
1616;BME280;801;47.982;7.810;2023-04-02T13:38:13;98547.03;;;14.87;86.83
1616;BME280;801;47.982;7.810;2023-04-02T13:40:39;98542.91;;;14.71;88.54
1616;BME280;801;47.982;7.810;2023-04-02T13:43:07;98545.41;;;14.86;87.11
1616;BME280;801;47.982;7.810;2023-04-02T13:45:44;98547.63;;;14.31;88.75
1616;BME280;801;47.982;7.810;2023-04-02T13:48:13;98550.66;;;14.24;87.06
1616;BME280;801;47.982;7.810;2023-04-02T13:50:40;98554.16;;;14.54;87.13
1616;BME280;801;47.982;7.810;2023-04-02T13:53:14;98552.66;;;14.43;85.74
1616;BME280;801;47.982;7.810;2023-04-02T13:55:45;98563.56;;;14.86;83.87
1616;BME280;801;47.982;7.810;2023-04-02T13:58:12;98561.34;;;15.12;83.96
1616;BME280;801;47.982;7.810;2023-04-02T14:00:38;98565.63;;;14.94;98.53